Time;durP1;ratioP1;P1;durP2;ratioP2;P2;SDS_P1;SDS_P2;PMS_P1;PMS_P2;Temp;Humidity;BMP_temperature;BMP_pressure;BME280_temperature;BME280_humidity;BME280_pressure;Samples;Min_cycle;Max_cycle;Signal;HPM_P1;HPM_P2
2023/07/29 00:01:35;;;;;;;9.13;8.30;;;18.10;99.90;;;;;;4992919;28;20930;-90
2023/07/29 00:04:02;;;;;;;9.20;7.77;;;18.30;99.90;;;;;;4989238;28;20530;-90
2023/07/29 00:06:29;;;;;;;10.70;8.70;;;18.10;99.90;;;;;;4973299;28;21009;-90
2023/07/29 00:08:57;;;;;;;14.00;8.37;;;18.10;99.90;;;;;;4992526;28;20517;-91
2023/07/29 00:11:23;;;;;;;8.37;7.67;;;18.10;99.90;;;;;;4977999;28;20485;-90
2023/07/29 00:13:50;;;;;;;8.53;7.83;;;18.10;99.90;;;;;;4989463;28;20447;-90
2023/07/29 00:16:17;;;;;;;9.93;7.90;;;18.00;99.90;;;;;;4979261;28;20527;-90
2023/07/29 00:18:44;;;;;;;7.80;7.10;;;18.00;99.90;;;;;;4991387;28;20561;-90
2023/07/29 00:21:11;;;;;;;8.13;7.40;;;18.00;99.90;;;;;;4978359;28;20789;-89
2023/07/29 00:23:38;;;;;;;7.33;6.67;;;18.00;99.90;;;;;;4992854;28;20459;-90
2023/07/29 00:26:06;;;;;;;7.13;6.60;;;18.00;99.90;;;;;;4988711;28;20508;-90
2023/07/29 00:28:32;;;;;;;9.90;6.53;;;18.00;99.90;;;;;;4988974;28;20530;-92
2023/07/29 00:30:59;;;;;;;8.50;6.83;;;17.90;99.90;;;;;;4992095;28;20447;-90
2023/07/29 00:33:26;;;;;;;7.07;6.47;;;18.00;99.90;;;;;;4992647;28;20509;-90
2023/07/29 00:35:53;;;;;;;10.00;7.20;;;18.00;99.90;;;;;;4975945;28;20448;-90
2023/07/29 00:38:19;;;;;;;6.77;6.17;;;18.00;99.90;;;;;;4978584;28;20476;-90
2023/07/29 00:40:46;;;;;;;6.40;5.90;;;18.00;99.90;;;;;;4990790;28;20517;-90
2023/07/29 00:43:14;;;;;;;6.33;5.80;;;17.90;99.90;;;;;;4992436;28;20450;-89
2023/07/29 00:45:43;;;;;;;7.27;6.57;;;17.90;99.90;;;;;;4991637;28;20451;-91
2023/07/29 00:48:10;;;;;;;10.40;6.30;;;17.90;99.90;;;;;;4985367;28;20893;-90
2023/07/29 00:50:37;;;;;;;8.77;7.40;;;17.90;99.90;;;;;;4981073;28;20452;-90
2023/07/29 00:53:04;;;;;;;6.83;6.23;;;17.90;99.90;;;;;;4980919;28;20454;-91
2023/07/29 00:55:31;;;;;;;9.40;6.33;;;18.00;99.90;;;;;;4988913;28;20426;-90
2023/07/29 00:57:58;;;;;;;8.57;7.03;;;18.00;99.90;;;;;;4989894;28;20538;-90
2023/07/29 01:00:26;;;;;;;9.30;6.70;;;18.00;99.90;;;;;;4981200;28;20460;-90
2023/07/29 01:02:54;;;;;;;8.07;6.47;;;18.00;99.90;;;;;;4983006;28;20459;-90
2023/07/29 01:05:22;;;;;;;8.93;8.03;;;18.00;99.90;;;;;;4992548;28;20467;-90
2023/07/29 01:07:56;;;;;;;9.43;7.50;;;18.10;99.90;;;;;;4988321;28;20502;-89
2023/07/29 01:10:32;;;;;;;8.87;8.00;;;18.10;99.90;;;;;;4992683;28;20847;-90
2023/07/29 01:13:05;;;;;;;13.00;7.47;;;18.10;99.90;;;;;;4992343;28;20451;-90
2023/07/29 01:15:42;;;;;;;8.37;7.63;;;18.30;99.90;;;;;;4976831;28;20554;-90
2023/07/29 01:18:16;;;;;;;9.00;8.20;;;18.20;99.90;;;;;;4977288;28;21024;-88
2023/07/29 01:20:44;;;;;;;12.57;7.70;;;18.20;99.90;;;;;;4991852;28;20455;-90
2023/07/29 01:23:11;;;;;;;16.77;7.30;;;18.20;99.90;;;;;;4992147;28;20451;-90
2023/07/29 01:25:39;;;;;;;9.30;7.93;;;18.20;99.90;;;;;;4992155;28;20451;-91
2023/07/29 01:28:06;;;;;;;12.77;8.20;;;18.20;99.90;;;;;;4992043;28;20490;-91
2023/07/29 01:30:41;;;;;;;10.20;8.07;;;18.20;99.90;;;;;;4977174;28;20456;-90
2023/07/29 01:33:14;;;;;;;9.27;8.37;;;18.20;99.90;;;;;;4992173;28;21019;-90
2023/07/29 01:35:45;;;;;;;14.13;8.90;;;18.20;99.90;;;;;;4992335;28;20467;-88
2023/07/29 01:38:18;;;;;;;8.97;8.17;;;18.20;99.90;;;;;;4984826;28;21000;-90
2023/07/29 01:40:48;;;;;;;9.97;8.70;;;18.20;99.90;;;;;;4992161;28;20497;-90
2023/07/29 01:43:15;;;;;;;8.77;7.87;;;18.20;99.90;;;;;;4992762;28;20455;-90
2023/07/29 01:45:42;;;;;;;11.60;8.27;;;18.10;99.90;;;;;;4984517;28;20512;-88
2023/07/29 01:48:09;;;;;;;13.70;9.23;;;18.10;99.90;;;;;;5009457;28;20478;-92
2023/07/29 01:50:35;;;;;;;14.53;9.60;;;18.10;99.90;;;;;;5008739;28;20482;-93
2023/07/29 01:53:02;;;;;;;11.67;9.17;;;18.10;99.90;;;;;;4990771;28;20459;-90
2023/07/29 01:55:30;;;;;;;11.30;9.50;;;18.10;99.90;;;;;;4995677;28;20870;-90
2023/07/29 01:57:58;;;;;;;10.40;9.40;;;18.10;99.90;;;;;;4995471;28;20525;-90
2023/07/29 02:00:24;;;;;;;15.73;9.60;;;18.00;99.90;;;;;;4995446;28;20466;-90
2023/07/29 02:02:51;;;;;;;11.10;9.73;;;18.00;99.90;;;;;;4986291;28;20456;-88
2023/07/29 02:05:18;;;;;;;12.60;11.40;;;18.10;99.90;;;;;;4976584;28;20515;-88
2023/07/29 02:07:44;;;;;;;14.90;12.60;;;18.00;99.90;;;;;;4984288;28;20499;-90
2023/07/29 02:10:11;;;;;;;17.97;14.33;;;18.00;99.90;;;;;;4979781;28;20501;-88
2023/07/29 02:12:38;;;;;;;20.93;14.00;;;17.90;99.90;;;;;;4995356;28;20926;-90
2023/07/29 02:15:07;;;;;;;16.40;13.77;;;18.00;99.90;;;;;;4995441;28;20459;-90
2023/07/29 02:17:34;;;;;;;22.40;14.40;;;18.00;99.90;;;;;;4995013;28;20562;-91
2023/07/29 02:20:01;;;;;;;17.87;14.30;;;17.90;99.90;;;;;;4992249;28;20458;-90
2023/07/29 02:22:28;;;;;;;17.43;13.33;;;18.00;99.90;;;;;;4981534;28;21071;-90
2023/07/29 02:24:54;;;;;;;15.03;13.13;;;18.00;99.90;;;;;;4993428;28;20916;-90
2023/07/29 02:27:21;;;;;;;19.13;12.20;;;18.00;99.90;;;;;;4983590;28;20487;-90
2023/07/29 02:29:48;;;;;;;16.10;13.57;;;18.00;99.90;;;;;;4984001;28;20457;-87
2023/07/29 02:32:16;;;;;;;16.23;14.00;;;18.00;99.90;;;;;;4975552;28;20448;-90
2023/07/29 02:34:43;;;;;;;17.60;14.40;;;18.00;99.90;;;;;;4983697;28;20555;-90
2023/07/29 02:37:09;;;;;;;20.17;14.00;;;18.00;99.90;;;;;;4994765;28;20542;-89
2023/07/29 02:39:37;;;;;;;18.50;13.93;;;18.00;99.90;;;;;;4988446;28;20476;-90
2023/07/29 02:42:04;;;;;;;19.10;14.50;;;18.00;99.90;;;;;;4983352;28;20491;-90
2023/07/29 02:44:31;;;;;;;17.87;14.20;;;18.00;99.90;;;;;;4981373;28;20839;-90
2023/07/29 02:46:58;;;;;;;17.07;14.40;;;18.00;99.90;;;;;;4994480;28;20483;-90
2023/07/29 02:49:26;;;;;;;19.63;13.67;;;18.00;99.90;;;;;;4986554;28;20480;-90
2023/07/29 02:51:53;;;;;;;15.37;12.97;;;18.00;99.90;;;;;;4995425;28;20439;-91
2023/07/29 02:54:19;;;;;;;14.53;11.93;;;18.00;99.90;;;;;;4992139;28;20479;-90
2023/07/29 02:56:46;;;;;;;16.20;13.63;;;18.00;99.90;;;;;;4991055;28;20525;-91
2023/07/29 02:59:13;;;;;;;20.47;12.50;;;18.00;99.90;;;;;;4993895;28;20499;-90
2023/07/29 03:01:39;;;;;;;14.47;12.13;;;17.90;99.90;;;;;;4986944;28;21060;-90
2023/07/29 03:04:06;;;;;;;15.73;10.90;;;17.90;99.90;;;;;;4993873;28;20451;-90
2023/07/29 03:06:34;;;;;;;15.33;9.57;;;17.90;99.90;;;;;;4985152;28;20464;-88
2023/07/29 03:09:01;;;;;;;13.40;9.43;;;17.90;99.90;;;;;;4982825;28;20472;-90
2023/07/29 03:11:27;;;;;;;13.10;10.43;;;17.90;99.90;;;;;;4988061;28;20447;-90
2023/07/29 03:13:54;;;;;;;14.50;11.00;;;17.90;99.90;;;;;;4978104;28;20491;-90
2023/07/29 03:16:22;;;;;;;19.20;12.77;;;17.90;99.90;;;;;;4994575;28;20456;-90
2023/07/29 03:18:49;;;;;;;19.23;14.20;;;17.90;99.90;;;;;;4986623;28;20529;-90
2023/07/29 03:21:16;;;;;;;21.93;16.13;;;18.00;99.90;;;;;;4978735;28;20443;-90
2023/07/29 03:23:44;;;;;;;27.60;18.47;;;18.00;99.90;;;;;;4986292;28;20518;-89
2023/07/29 03:26:11;;;;;;;22.63;16.80;;;18.00;99.90;;;;;;4993706;28;20455;-91
2023/07/29 03:28:39;;;;;;;26.43;18.17;;;18.00;99.90;;;;;;4979101;28;20966;-90
2023/07/29 03:31:05;;;;;;;26.37;18.80;;;18.00;99.90;;;;;;4977135;28;20962;-89
2023/07/29 03:33:32;;;;;;;29.37;20.50;;;18.00;99.90;;;;;;4993767;28;20509;-89
2023/07/29 03:35:59;;;;;;;31.07;20.77;;;18.00;99.90;;;;;;4985996;28;20464;-89
2023/07/29 03:38:27;;;;;;;30.90;22.33;;;17.90;99.90;;;;;;4988796;28;20480;-89
2023/07/29 03:40:55;;;;;;;30.53;21.10;;;18.00;99.90;;;;;;4982105;28;20443;-90
2023/07/29 03:43:22;;;;;;;28.60;20.30;;;17.90;99.90;;;;;;4982509;28;20591;-90
2023/07/29 03:45:48;;;;;;;35.40;22.97;;;18.00;99.90;;;;;;4974854;28;20474;-90
2023/07/29 03:48:15;;;;;;;27.03;19.97;;;17.90;99.90;;;;;;4985222;28;20498;-89
2023/07/29 03:50:42;;;;;;;31.23;21.43;;;18.00;99.90;;;;;;4969206;28;20460;-90
2023/07/29 03:53:09;;;;;;;29.37;20.90;;;17.90;99.90;;;;;;4976446;28;20929;-90
2023/07/29 03:55:36;;;;;;;31.03;19.23;;;17.90;99.90;;;;;;4993553;28;20467;-90
2023/07/29 03:58:04;;;;;;;25.30;20.50;;;17.90;99.90;;;;;;4993229;28;20876;-91
2023/07/29 04:00:31;;;;;;;29.23;20.20;;;17.90;99.90;;;;;;4979659;28;20463;-91
2023/07/29 04:02:58;;;;;;;29.00;21.40;;;18.00;99.90;;;;;;4982359;28;20843;-90
2023/07/29 04:05:25;;;;;;;26.47;21.00;;;18.00;99.90;;;;;;4992723;28;20467;-90
2023/07/29 04:07:52;;;;;;;26.70;19.83;;;18.00;99.90;;;;;;4981379;28;21060;-89
2023/07/29 04:10:19;;;;;;;23.60;17.37;;;18.10;99.90;;;;;;4992908;28;20467;-90
2023/07/29 04:12:46;;;;;;;20.50;17.03;;;18.00;99.90;;;;;;4985848;28;20530;-90
2023/07/29 04:15:14;;;;;;;19.83;15.93;;;18.00;99.90;;;;;;4981608;28;20466;-90
2023/07/29 04:17:41;;;;;;;18.53;15.30;;;18.00;99.90;;;;;;4980373;28;20547;-90
2023/07/29 04:20:08;;;;;;;19.53;16.00;;;18.00;99.90;;;;;;4993428;28;20484;-89
2023/07/29 04:22:35;;;;;;;14.90;13.30;;;18.10;99.90;;;;;;4993258;28;20455;-90
2023/07/29 04:25:04;;;;;;;15.30;13.70;;;18.10;99.90;;;;;;4992001;28;20430;-90
2023/07/29 04:27:31;;;;;;;15.53;13.37;;;18.10;99.90;;;;;;4986869;28;20549;-90
2023/07/29 04:29:57;;;;;;;14.10;12.30;;;18.10;99.90;;;;;;4984195;28;20513;-89
2023/07/29 04:32:25;;;;;;;13.23;10.93;;;18.10;99.90;;;;;;4985610;28;20455;-90
2023/07/29 04:34:52;;;;;;;11.43;10.23;;;18.10;99.90;;;;;;4984687;28;20452;-88
2023/07/29 04:37:19;;;;;;;14.47;12.13;;;18.20;99.90;;;;;;4977122;28;20522;-90
2023/07/29 04:39:46;;;;;;;14.87;11.67;;;18.20;99.90;;;;;;4992916;28;20525;-90
2023/07/29 04:42:13;;;;;;;16.10;12.20;;;18.20;99.90;;;;;;4984639;28;20458;-89
2023/07/29 04:44:41;;;;;;;14.47;12.27;;;18.20;99.90;;;;;;4992450;28;20875;-90
2023/07/29 04:47:08;;;;;;;15.87;12.50;;;18.20;99.90;;;;;;4984807;28;20989;-90
2023/07/29 04:49:36;;;;;;;13.03;11.67;;;18.20;99.90;;;;;;4982205;28;21073;-90
2023/07/29 04:52:03;;;;;;;14.50;11.10;;;18.20;99.90;;;;;;4982533;28;20435;-90
2023/07/29 04:54:29;;;;;;;13.07;9.17;;;18.20;99.90;;;;;;5005168;28;20462;-92
2023/07/29 04:56:56;;;;;;;9.33;8.43;;;18.20;99.90;;;;;;5017126;28;20443;-91
2023/07/29 04:59:23;;;;;;;9.77;8.83;;;18.30;99.90;;;;;;5008086;28;20462;-90
2023/07/29 05:01:50;;;;;;;10.27;9.13;;;18.30;99.90;;;;;;4985194;28;20507;-90
2023/07/29 05:04:17;;;;;;;13.73;10.20;;;18.30;99.90;;;;;;4981108;28;20444;-89
2023/07/29 05:06:45;;;;;;;19.20;11.10;;;18.30;99.90;;;;;;4972794;28;20838;-90
2023/07/29 05:09:15;;;;;;;11.43;10.23;;;18.30;99.90;;;;;;4990687;28;20498;-90
2023/07/29 05:11:43;;;;;;;13.20;11.33;;;18.40;99.90;;;;;;4985962;28;20606;-90
2023/07/29 05:14:10;;;;;;;12.23;10.17;;;18.40;99.90;;;;;;4982713;28;20494;-90
2023/07/29 05:16:36;;;;;;;15.33;10.67;;;18.40;99.90;;;;;;5003793;28;20447;-92
2023/07/29 05:19:03;;;;;;;12.63;10.60;;;18.30;99.90;;;;;;4994100;28;20529;-90
2023/07/29 05:21:30;;;;;;;16.20;10.43;;;18.40;99.90;;;;;;4991949;28;20483;-90
2023/07/29 05:23:58;;;;;;;11.20;10.03;;;18.50;99.90;;;;;;4988101;28;20451;-91
2023/07/29 05:26:25;;;;;;;18.20;10.97;;;18.50;99.90;;;;;;4984648;28;20452;-90
2023/07/29 05:28:52;;;;;;;11.70;10.33;;;18.60;99.90;;;;;;4983681;28;20549;-91
2023/07/29 05:31:18;;;;;;;13.80;11.20;;;18.60;99.90;;;;;;4988733;28;20458;-89
2023/07/29 05:33:45;;;;;;;11.73;10.53;;;18.70;99.90;;;;;;4995997;28;20459;-90
2023/07/29 05:36:12;;;;;;;16.40;11.40;;;18.80;99.90;;;;;;4979845;28;20459;-90
2023/07/29 05:38:38;;;;;;;14.70;11.73;;;18.80;99.90;;;;;;4995908;28;20474;-88
2023/07/29 05:41:06;;;;;;;13.57;11.20;;;18.90;99.90;;;;;;4979989;28;20448;-89
2023/07/29 05:43:33;;;;;;;12.13;9.70;;;19.00;99.90;;;;;;4996286;28;20459;-90
2023/07/29 05:46:00;;;;;;;16.23;9.20;;;19.00;99.90;;;;;;4996352;28;20451;-88
2023/07/29 05:48:26;;;;;;;11.17;8.90;;;19.10;99.90;;;;;;4994769;28;20545;-88
2023/07/29 05:50:53;;;;;;;9.47;8.40;;;19.10;99.90;;;;;;4983302;28;20509;-87
2023/07/29 05:53:20;;;;;;;8.13;7.33;;;19.20;99.90;;;;;;4995638;28;20466;-87
2023/07/29 05:55:46;;;;;;;10.37;8.60;;;19.20;99.90;;;;;;4995975;28;20968;-87
2023/07/29 05:58:14;;;;;;;9.77;8.87;;;19.30;99.90;;;;;;4996041;28;20475;-89
2023/07/29 06:00:41;;;;;;;17.53;10.07;;;19.10;99.90;;;;;;4982044;28;20444;-88
2023/07/29 06:03:08;;;;;;;12.17;10.87;;;19.10;99.90;;;;;;4993651;28;20450;-89
2023/07/29 06:05:34;;;;;;;13.07;11.67;;;19.10;99.90;;;;;;4993655;28;20443;-89
2023/07/29 06:08:01;;;;;;;17.87;11.53;;;19.10;99.90;;;;;;4984132;28;20996;-88
2023/07/29 06:10:28;;;;;;;12.00;10.70;;;19.10;99.90;;;;;;4995653;28;20440;-89
2023/07/29 06:12:54;;;;;;;9.17;8.30;;;19.10;99.90;;;;;;4996769;28;20463;-89
2023/07/29 06:15:22;;;;;;;10.70;9.70;;;19.10;99.90;;;;;;4996407;28;20458;-89
2023/07/29 06:17:49;;;;;;;10.27;9.17;;;19.10;99.90;;;;;;4996669;28;20478;-88
2023/07/29 06:20:16;;;;;;;11.23;9.07;;;19.10;99.90;;;;;;4996027;28;20439;-89
2023/07/29 06:22:43;;;;;;;11.30;8.00;;;19.10;99.90;;;;;;4995739;28;20454;-90
2023/07/29 06:25:09;;;;;;;11.10;8.77;;;19.00;99.90;;;;;;4995908;28;20526;-90
2023/07/29 06:27:36;;;;;;;10.07;7.93;;;19.00;99.90;;;;;;4984722;28;21062;-87
2023/07/29 06:30:03;;;;;;;9.20;8.17;;;19.00;99.90;;;;;;4995329;28;20494;-90
2023/07/29 06:32:32;;;;;;;9.93;8.80;;;19.00;99.90;;;;;;4996502;28;20821;-89
2023/07/29 06:34:59;;;;;;;8.80;8.00;;;19.00;99.90;;;;;;4996913;28;20458;-89
2023/07/29 06:37:26;;;;;;;11.63;7.77;;;19.00;99.90;;;;;;4995587;28;21182;-90
2023/07/29 06:39:52;;;;;;;9.73;7.50;;;19.00;99.90;;;;;;4998369;28;20447;-89
2023/07/29 06:42:19;;;;;;;8.47;7.77;;;19.00;99.90;;;;;;4996335;28;20494;-89
2023/07/29 06:44:46;;;;;;;15.97;9.27;;;18.90;99.90;;;;;;4995576;28;20452;-88
2023/07/29 06:47:13;;;;;;;8.97;8.10;;;18.90;99.90;;;;;;4996179;28;20451;-89
2023/07/29 06:49:41;;;;;;;11.33;9.70;;;18.80;99.90;;;;;;4983794;28;20487;-88
2023/07/29 06:52:08;;;;;;;11.83;9.93;;;18.90;99.90;;;;;;4987312;28;20447;-90
2023/07/29 06:54:35;;;;;;;11.03;9.90;;;18.90;99.90;;;;;;4997024;28;20475;-90
2023/07/29 06:57:02;;;;;;;12.50;11.00;;;18.80;99.90;;;;;;4995819;28;20483;-89
2023/07/29 06:59:28;;;;;;;12.40;11.10;;;18.80;99.90;;;;;;4992744;28;20526;-90
2023/07/29 07:01:55;;;;;;;14.30;11.03;;;18.80;99.90;;;;;;4990485;28;20443;-88
2023/07/29 07:04:22;;;;;;;16.27;12.50;;;18.80;99.90;;;;;;4994673;28;20489;-90
2023/07/29 07:06:53;;;;;;;15.97;13.23;;;18.70;99.90;;;;;;4983837;28;20939;-90
2023/07/29 07:09:20;;;;;;;14.63;12.27;;;18.60;99.90;;;;;;4985796;28;20503;-90
2023/07/29 07:11:47;;;;;;;15.07;12.83;;;18.70;99.90;;;;;;4989060;28;20463;-90
2023/07/29 07:14:14;;;;;;;14.90;11.73;;;18.70;99.90;;;;;;4986156;28;20985;-90
2023/07/29 07:16:40;;;;;;;14.27;12.20;;;18.70;99.90;;;;;;4994571;28;20514;-88
2023/07/29 07:19:07;;;;;;;14.80;12.73;;;18.70;99.90;;;;;;4994737;28;20896;-89
2023/07/29 07:21:34;;;;;;;15.40;12.23;;;18.70;99.90;;;;;;4994687;28;20523;-90
2023/07/29 07:24:02;;;;;;;14.37;12.00;;;18.70;99.90;;;;;;4994851;28;20454;-88
2023/07/29 07:26:29;;;;;;;13.47;12.07;;;18.70;99.90;;;;;;4989016;28;20447;-87
2023/07/29 07:28:55;;;;;;;22.40;13.47;;;18.70;99.90;;;;;;4997676;28;20564;-87
2023/07/29 07:31:23;;;;;;;15.03;12.20;;;18.70;99.90;;;;;;4994404;28;20510;-88
2023/07/29 07:33:49;;;;;;;17.63;13.70;;;18.60;99.90;;;;;;4981536;28;20912;-88
2023/07/29 07:36:16;;;;;;;14.57;13.07;;;18.70;99.90;;;;;;4994548;28;21019;-88
2023/07/29 07:38:43;;;;;;;15.57;13.20;;;18.60;99.90;;;;;;4994712;28;20737;-89
2023/07/29 07:41:11;;;;;;;15.73;13.80;;;18.70;99.90;;;;;;4986167;28;20444;-88
2023/07/29 07:43:37;;;;;;;16.30;13.43;;;18.60;99.90;;;;;;4987371;28;20987;-89
2023/07/29 07:46:05;;;;;;;17.50;14.10;;;18.80;99.90;;;;;;4985239;28;20992;-89
2023/07/29 07:48:33;;;;;;;15.13;12.90;;;18.80;99.90;;;;;;4991760;28;20487;-88
2023/07/29 07:50:59;;;;;;;16.87;13.10;;;18.80;99.90;;;;;;4981727;28;20486;-89
2023/07/29 07:53:26;;;;;;;16.93;14.00;;;18.80;99.90;;;;;;4995295;28;20529;-89
2023/07/29 07:55:53;;;;;;;17.40;13.60;;;18.80;99.90;;;;;;4995648;28;20451;-87
2023/07/29 07:58:21;;;;;;;18.93;15.03;;;18.90;99.90;;;;;;4996666;28;20562;-90
2023/07/29 08:00:48;;;;;;;14.17;12.63;;;19.00;99.90;;;;;;5017683;28;20471;-89
2023/07/29 08:03:14;;;;;;;16.87;13.27;;;19.20;99.90;;;;;;4998373;28;20474;-89
2023/07/29 08:05:41;;;;;;;12.10;10.87;;;19.30;99.90;;;;;;4991457;28;20513;-88
2023/07/29 08:08:08;;;;;;;11.03;9.50;;;19.40;99.90;;;;;;4983530;28;20463;-89
2023/07/29 08:10:34;;;;;;;10.60;8.77;;;19.50;99.90;;;;;;4993568;28;20502;-88
2023/07/29 08:13:01;;;;;;;9.53;7.27;;;19.80;99.90;;;;;;4994502;28;20549;-89
2023/07/29 08:15:29;;;;;;;6.77;5.87;;;19.60;99.90;;;;;;4984009;28;20470;-89
2023/07/29 08:17:56;;;;;;;8.90;6.53;;;19.60;99.90;;;;;;4981629;28;20503;-89
2023/07/29 08:20:22;;;;;;;8.27;7.20;;;19.70;99.90;;;;;;4994599;28;20460;-88
2023/07/29 08:22:49;;;;;;;7.23;6.53;;;19.80;99.90;;;;;;4994738;28;20455;-89
2023/07/29 08:25:16;;;;;;;6.90;5.20;;;20.10;99.90;;;;;;4978345;28;20448;-88
2023/07/29 08:27:42;;;;;;;4.90;4.50;;;20.40;99.90;;;;;;4995800;28;20500;-85
2023/07/29 08:30:10;;;;;;;3.83;3.63;;;20.80;99.90;;;;;;4993069;28;20999;-89
2023/07/29 08:32:38;;;;;;;4.63;4.23;;;21.40;99.90;;;;;;4980420;28;20462;-89
2023/07/29 08:35:05;;;;;;;6.33;3.20;;;21.80;99.90;;;;;;4995603;28;20948;-89
2023/07/29 08:37:32;;;;;;;3.43;2.47;;;22.10;99.90;;;;;;4996215;28;20471;-89
2023/07/29 08:39:59;;;;;;;4.23;3.07;;;22.00;99.90;;;;;;4979921;28;20448;-90
2023/07/29 08:42:29;;;;;;;3.30;3.00;;;22.00;99.90;;;;;;4992719;28;20893;-87
2023/07/29 08:44:57;;;;;;;3.33;3.03;;;22.00;99.90;;;;;;4994832;28;20455;-89
2023/07/29 08:47:24;;;;;;;3.77;3.30;;;22.30;99.90;;;;;;4993416;28;20465;-89
2023/07/29 08:49:53;;;;;;;4.20;2.53;;;22.50;99.90;;;;;;4986647;28;20518;-87
2023/07/29 08:52:21;;;;;;;4.00;3.00;;;22.50;99.90;;;;;;4993615;28;20435;-89
2023/07/29 08:54:48;;;;;;;14.43;3.30;;;22.40;99.90;;;;;;4994627;28;20447;-88
2023/07/29 08:57:15;;;;;;;3.60;2.40;;;22.50;99.90;;;;;;4987407;28;20468;-89
2023/07/29 08:59:42;;;;;;;3.50;2.40;;;22.50;99.90;;;;;;4998509;28;21009;-89
2023/07/29 09:02:09;;;;;;;3.70;2.60;;;22.70;99.90;;;;;;4983131;28;20510;-89
2023/07/29 09:04:35;;;;;;;2.10;2.00;;;23.20;99.90;;;;;;4986843;28;20444;-90
2023/07/29 09:07:06;;;;;;;2.73;1.70;;;23.40;99.90;;;;;;4978675;28;20518;-90
2023/07/29 09:09:32;;;;;;;3.30;2.30;;;23.60;99.90;;;;;;4994445;28;20486;-89
2023/07/29 09:12:00;;;;;;;1.83;1.73;;;23.50;99.90;;;;;;4977849;28;20463;-90
2023/07/29 09:14:27;;;;;;;6.90;1.97;;;23.40;99.90;;;;;;4978183;28;20459;-89
2023/07/29 09:16:54;;;;;;;1.90;1.80;;;23.60;99.90;;;;;;4991640;28;21077;-89
2023/07/29 09:19:21;;;;;;;2.30;2.13;;;23.80;99.90;;;;;;4991389;28;20525;-89
2023/07/29 09:21:48;;;;;;;2.10;1.90;;;23.70;99.90;;;;;;4998788;28;20475;-90
2023/07/29 09:24:18;;;;;;;2.10;2.00;;;23.60;99.90;;;;;;4990036;28;20491;-90
2023/07/29 09:26:50;;;;;;;3.20;1.80;;;23.70;99.90;;;;;;4981535;28;20454;-88
2023/07/29 09:29:22;;;;;;;1.80;1.70;;;23.70;99.90;;;;;;4988465;28;20484;-87
2023/07/29 09:31:49;;;;;;;1.90;1.80;;;23.60;99.90;;;;;;4993835;28;20491;-88
2023/07/29 09:34:16;;;;;;;1.80;1.70;;;23.50;99.90;;;;;;4995758;28;20576;-89
2023/07/29 09:36:43;;;;;;;1.90;1.80;;;23.60;99.90;;;;;;4995309;28;21028;-89
2023/07/29 09:39:12;;;;;;;1.73;1.60;;;23.50;99.90;;;;;;4995659;28;20506;-89
2023/07/29 09:41:40;;;;;;;2.33;2.00;;;23.60;99.90;;;;;;4984558;28;20526;-89
2023/07/29 09:44:08;;;;;;;5.50;1.77;;;23.60;99.90;;;;;;4983897;28;20463;-88
2023/07/29 09:46:36;;;;;;;1.70;1.60;;;23.60;99.90;;;;;;4985874;28;20450;-89
2023/07/29 09:49:04;;;;;;;2.20;2.00;;;23.50;99.90;;;;;;4984618;28;20853;-89
2023/07/29 09:51:31;;;;;;;3.67;2.10;;;23.60;99.90;;;;;;4994677;28;20466;-89
2023/07/29 09:53:58;;;;;;;1.90;1.80;;;23.50;99.90;;;;;;4997640;28;20482;-87
2023/07/29 09:56:27;;;;;;;3.20;2.00;;;23.50;99.90;;;;;;4990666;28;20452;-88
2023/07/29 09:58:57;;;;;;;1.90;1.67;;;23.40;99.90;;;;;;4996134;28;20479;-89
2023/07/29 10:01:24;;;;;;;1.77;1.67;;;23.60;99.90;;;;;;4989317;28;20452;-89
2023/07/29 10:03:51;;;;;;;2.13;1.60;;;23.80;99.90;;;;;;4996824;28;20526;-89
2023/07/29 10:06:19;;;;;;;3.43;1.63;;;23.90;99.90;;;;;;4989002;28;20452;-89
2023/07/29 10:08:46;;;;;;;2.10;1.70;;;24.00;99.90;;;;;;4976510;28;20773;-88
2023/07/29 10:11:13;;;;;;;1.80;1.70;;;24.20;99.90;;;;;;4976744;28;20456;-88
2023/07/29 10:13:40;;;;;;;2.63;1.60;;;24.40;99.90;;;;;;4987243;28;20513;-89
2023/07/29 10:16:09;;;;;;;1.60;1.50;;;24.60;99.90;;;;;;4995805;28;20435;-88
2023/07/29 10:18:36;;;;;;;1.53;1.43;;;25.00;99.90;;;;;;4996290;28;20479;-89
2023/07/29 10:21:04;;;;;;;4.57;2.00;;;24.90;99.90;;;;;;4995997;28;20518;-88
2023/07/29 10:23:38;;;;;;;2.00;1.90;;;24.90;99.90;;;;;;4980115;28;20483;-88
2023/07/29 10:26:08;;;;;;;3.23;1.80;;;24.80;99.90;;;;;;4996422;28;20957;-89
2023/07/29 10:28:40;;;;;;;3.30;1.90;;;24.50;99.90;;;;;;4986213;28;20475;-89
2023/07/29 10:31:08;;;;;;;4.07;2.00;;;24.80;99.90;;;;;;4989667;28;20478;-89
2023/07/29 10:33:36;;;;;;;3.10;1.70;;;24.90;99.90;;;;;;4979977;28;20456;-88
2023/07/29 10:36:05;;;;;;;1.70;1.60;;;25.20;99.90;;;;;;4995746;28;20848;-89
2023/07/29 10:38:32;;;;;;;2.10;1.90;;;25.70;99.90;;;;;;4979763;28;20870;-89
2023/07/29 10:41:00;;;;;;;5.40;1.90;;;26.10;99.90;;;;;;4982079;28;20456;-87
2023/07/29 10:43:32;;;;;;;1.80;1.60;;;26.20;99.90;;;;;;4985661;28;20463;-89
2023/07/29 10:46:15;;;;;;;1.40;1.30;;;25.90;99.90;;;;;;4996276;28;20467;-88
2023/07/29 10:48:44;;;;;;;1.83;1.63;;;25.80;99.90;;;;;;4993850;28;21013;-89
2023/07/29 10:51:24;;;;;;;1.60;1.50;;;25.60;99.90;;;;;;4991157;28;20493;-89
2023/07/29 10:53:53;;;;;;;3.93;1.87;;;25.30;99.90;;;;;;4981576;28;20825;-89
2023/07/29 10:56:27;;;;;;;2.77;2.00;;;25.00;99.90;;;;;;4996762;28;20451;-88
2023/07/29 10:58:57;;;;;;;3.87;2.50;;;24.70;99.90;;;;;;4996341;28;20467;-88
2023/07/29 11:01:28;;;;;;;4.30;1.87;;;24.60;99.90;;;;;;4981686;28;20452;-88
2023/07/29 11:04:24;;;;;;;2.90;2.13;;;24.80;99.90;;;;;;5009829;28;20427;-90
2023/07/29 11:07:26;;;;;;;2.60;1.93;;;25.30;99.90;;;;;;5017837;28;20431;-89
2023/07/29 11:09:58;;;;;;;3.10;1.80;;;25.80;99.90;;;;;;4995874;28;20497;-89
2023/07/29 11:12:40;;;;;;;7.13;1.90;;;26.10;99.90;;;;;;4986959;28;20805;-91
2023/07/29 11:15:17;;;;;;;2.30;2.10;;;26.30;99.90;;;;;;4995253;28;20881;-90
2023/07/29 11:17:45;;;;;;;2.80;1.70;;;26.40;99.90;;;;;;4994871;28;20898;-89
2023/07/29 11:20:14;;;;;;;4.00;1.60;;;26.30;99.90;;;;;;4994797;28;20462;-90
2023/07/29 11:22:42;;;;;;;1.90;1.80;;;26.00;99.90;;;;;;4995888;28;20454;-88
2023/07/29 11:25:10;;;;;;;1.90;1.80;;;25.70;99.90;;;;;;4981473;28;20502;-89
2023/07/29 11:27:37;;;;;;;5.77;2.00;;;25.50;99.90;;;;;;4991187;28;20460;-89
2023/07/29 11:30:07;;;;;;;2.10;1.90;;;25.40;99.90;;;;;;4979061;28;21012;-88
2023/07/29 11:32:35;;;;;;;6.50;1.93;;;25.30;99.90;;;;;;4992098;28;20491;-88
2023/07/29 11:35:03;;;;;;;3.70;2.20;;;25.20;99.90;;;;;;4994119;28;20491;-87
2023/07/29 11:37:33;;;;;;;7.53;2.10;;;24.80;99.90;;;;;;4994772;28;20509;-88
2023/07/29 11:40:00;;;;;;;3.20;1.93;;;24.50;99.90;;;;;;4994034;28;20950;-86
2023/07/29 11:42:27;;;;;;;2.60;1.80;;;24.30;99.90;;;;;;4986431;28;20869;-87
2023/07/29 11:44:54;;;;;;;3.00;1.47;;;24.50;99.90;;;;;;4994361;28;20463;-88
2023/07/29 11:47:20;;;;;;;1.53;1.43;;;25.10;99.90;;;;;;4986303;28;20468;-88
2023/07/29 11:49:47;;;;;;;3.27;1.80;;;25.40;99.90;;;;;;4984883;28;20486;-88
2023/07/29 11:52:18;;;;;;;2.00;1.90;;;25.30;99.90;;;;;;4994833;28;20439;-88
2023/07/29 11:54:47;;;;;;;2.40;1.53;;;25.60;99.90;;;;;;4986679;28;20523;-87
2023/07/29 11:57:14;;;;;;;3.40;1.63;;;25.90;99.90;;;;;;4994370;28;20965;-88
2023/07/29 11:59:43;;;;;;;3.53;1.90;;;26.50;99.90;;;;;;4994544;28;20459;-88
2023/07/29 12:02:12;;;;;;;1.80;1.70;;;27.10;99.90;;;;;;4993888;28;20443;-88
2023/07/29 12:04:39;;;;;;;4.00;1.80;;;27.60;99.90;;;;;;4995714;28;20451;-88
2023/07/29 12:07:06;;;;;;;2.10;1.90;;;28.10;99.90;;;;;;4986256;28;20451;-89
2023/07/29 12:09:34;;;;;;;2.83;1.80;;;28.20;99.90;;;;;;4995827;28;21008;-88
2023/07/29 12:12:02;;;;;;;1.90;1.80;;;28.30;99.90;;;;;;4994090;28;20455;-88
2023/07/29 12:14:30;;;;;;;1.73;1.30;;;28.10;99.90;;;;;;4994393;28;20459;-88
2023/07/29 12:16:56;;;;;;;5.60;1.90;;;27.70;99.90;;;;;;4993206;28;20454;-88
2023/07/29 12:19:25;;;;;;;2.10;1.90;;;27.80;99.90;;;;;;4993258;28;20459;-89
2023/07/29 12:21:51;;;;;;;1.80;1.70;;;27.90;99.90;;;;;;4993455;28;20452;-89
2023/07/29 12:24:18;;;;;;;1.57;1.37;;;28.00;99.90;;;;;;4993534;28;20459;-89
2023/07/29 12:26:45;;;;;;;2.53;1.50;;;28.00;99.90;;;;;;4983195;28;20499;-89
2023/07/29 12:29:15;;;;;;;1.60;1.47;;;27.60;99.90;;;;;;4988197;28;21038;-90
2023/07/29 12:31:42;;;;;;;2.60;1.70;;;27.30;99.90;;;;;;4989176;28;20494;-87
2023/07/29 12:34:11;;;;;;;1.70;1.50;;;27.40;99.90;;;;;;4993494;28;20459;-88
2023/07/29 12:36:45;;;;;;;3.50;1.90;;;27.70;99.90;;;;;;4977608;28;20495;-89
2023/07/29 12:39:19;;;;;;;3.10;1.80;;;28.10;99.90;;;;;;4989326;28;20480;-86
2023/07/29 12:41:46;;;;;;;1.73;1.63;;;28.10;99.90;;;;;;4983940;28;20444;-89